sensor_id;sensor_type;location;lat;lon;timestamp;P1;durP1;ratioP1;P2;durP2;ratioP2
30896;SDS011;17597;52.246;21.054;2022-08-01T00:02:26;12.23;;;4.88;;
30896;SDS011;17597;52.246;21.054;2022-08-01T00:04:56;12.18;;;5.32;;
30896;SDS011;17597;52.246;21.054;2022-08-01T00:07:22;14.48;;;6.50;;
30896;SDS011;17597;52.246;21.054;2022-08-01T00:09:48;13.13;;;6.45;;
30896;SDS011;17597;52.246;21.054;2022-08-01T00:12:13;12.20;;;6.50;;
30896;SDS011;17597;52.246;21.054;2022-08-01T00:14:38;11.57;;;6.22;;
30896;SDS011;17597;52.246;21.054;2022-08-01T00:17:04;12.40;;;5.88;;
30896;SDS011;17597;52.246;21.054;2022-08-01T00:19:29;11.98;;;5.82;;
30896;SDS011;17597;52.246;21.054;2022-08-01T00:21:55;10.90;;;5.57;;
30896;SDS011;17597;52.246;21.054;2022-08-01T00:24:20;8.65;;;4.80;;
30896;SDS011;17597;52.246;21.054;2022-08-01T00:26:45;7.97;;;3.88;;
30896;SDS011;17597;52.246;21.054;2022-08-01T00:29:11;5.13;;;2.97;;
30896;SDS011;17597;52.246;21.054;2022-08-01T00:31:36;8.30;;;3.53;;
30896;SDS011;17597;52.246;21.054;2022-08-01T00:34:02;7.30;;;3.42;;
30896;SDS011;17597;52.246;21.054;2022-08-01T00:36:27;5.10;;;2.83;;
30896;SDS011;17597;52.246;21.054;2022-08-01T00:38:53;4.07;;;2.95;;
30896;SDS011;17597;52.246;21.054;2022-08-01T00:41:18;5.85;;;2.80;;
30896;SDS011;17597;52.246;21.054;2022-08-01T00:43:43;6.55;;;3.17;;
30896;SDS011;17597;52.246;21.054;2022-08-01T00:46:09;3.85;;;2.78;;
30896;SDS011;17597;52.246;21.054;2022-08-01T00:48:34;7.00;;;2.75;;
30896;SDS011;17597;52.246;21.054;2022-08-01T00:50:59;3.85;;;2.72;;
30896;SDS011;17597;52.246;21.054;2022-08-01T00:53:25;6.82;;;2.70;;
30896;SDS011;17597;52.246;21.054;2022-08-01T00:55:50;6.72;;;3.10;;
30896;SDS011;17597;52.246;21.054;2022-08-01T00:58:16;7.88;;;2.80;;
30896;SDS011;17597;52.246;21.054;2022-08-01T01:00:42;6.07;;;3.33;;
30896;SDS011;17597;52.246;21.054;2022-08-01T01:03:07;6.22;;;2.97;;
30896;SDS011;17597;52.246;21.054;2022-08-01T01:05:34;5.22;;;3.03;;
30896;SDS011;17597;52.246;21.054;2022-08-01T01:08:19;9.05;;;3.08;;
30896;SDS011;17597;52.246;21.054;2022-08-01T01:10:54;7.68;;;3.50;;
30896;SDS011;17597;52.246;21.054;2022-08-01T01:16:00;10.02;;;3.53;;
30896;SDS011;17597;52.246;21.054;2022-08-01T01:18:34;10.20;;;3.50;;
30896;SDS011;17597;52.246;21.054;2022-08-01T01:24:03;9.55;;;3.67;;
30896;SDS011;17597;52.246;21.054;2022-08-01T01:26:52;8.18;;;3.78;;
30896;SDS011;17597;52.246;21.054;2022-08-01T01:29:35;10.18;;;3.30;;
30896;SDS011;17597;52.246;21.054;2022-08-01T01:34:36;9.43;;;3.47;;
30896;SDS011;17597;52.246;21.054;2022-08-01T01:37:04;8.30;;;4.05;;
30896;SDS011;17597;52.246;21.054;2022-08-01T01:39:35;4.68;;;3.28;;
30896;SDS011;17597;52.246;21.054;2022-08-01T01:42:04;10.77;;;4.55;;
30896;SDS011;17597;52.246;21.054;2022-08-01T01:44:31;7.47;;;3.63;;
30896;SDS011;17597;52.246;21.054;2022-08-01T01:46:58;11.07;;;3.72;;
30896;SDS011;17597;52.246;21.054;2022-08-01T01:49:25;6.25;;;3.13;;
30896;SDS011;17597;52.246;21.054;2022-08-01T01:51:53;7.28;;;3.40;;
30896;SDS011;17597;52.246;21.054;2022-08-01T01:54:21;7.82;;;3.22;;
30896;SDS011;17597;52.246;21.054;2022-08-01T01:56:52;9.43;;;3.83;;
30896;SDS011;17597;52.246;21.054;2022-08-01T01:59:24;6.15;;;3.17;;
30896;SDS011;17597;52.246;21.054;2022-08-01T02:01:53;4.82;;;3.50;;
30896;SDS011;17597;52.246;21.054;2022-08-01T02:04:22;5.82;;;3.30;;
30896;SDS011;17597;52.246;21.054;2022-08-01T02:06:48;10.73;;;3.40;;
30896;SDS011;17597;52.246;21.054;2022-08-01T02:09:19;6.72;;;2.97;;
30896;SDS011;17597;52.246;21.054;2022-08-01T02:11:47;7.28;;;3.60;;
30896;SDS011;17597;52.246;21.054;2022-08-01T02:14:14;6.63;;;3.60;;
30896;SDS011;17597;52.246;21.054;2022-08-01T02:16:43;8.73;;;3.40;;
30896;SDS011;17597;52.246;21.054;2022-08-01T02:19:11;7.35;;;2.95;;
30896;SDS011;17597;52.246;21.054;2022-08-01T02:21:40;5.85;;;2.70;;
30896;SDS011;17597;52.246;21.054;2022-08-01T02:26:57;11.02;;;2.90;;
30896;SDS011;17597;52.246;21.054;2022-08-01T02:32:02;5.65;;;2.80;;
30896;SDS011;17597;52.246;21.054;2022-08-01T02:34:29;6.80;;;2.83;;
30896;SDS011;17597;52.246;21.054;2022-08-01T02:36:57;11.02;;;3.03;;
30896;SDS011;17597;52.246;21.054;2022-08-01T02:39:25;7.20;;;2.90;;
30896;SDS011;17597;52.246;21.054;2022-08-01T02:41:55;5.57;;;2.75;;
30896;SDS011;17597;52.246;21.054;2022-08-01T02:44:27;10.05;;;3.47;;
30896;SDS011;17597;52.246;21.054;2022-08-01T02:46:57;7.38;;;2.63;;
30896;SDS011;17597;52.246;21.054;2022-08-01T02:49:29;6.88;;;3.30;;
30896;SDS011;17597;52.246;21.054;2022-08-01T02:51:58;6.18;;;2.70;;
30896;SDS011;17597;52.246;21.054;2022-08-01T02:54:26;14.05;;;3.10;;
30896;SDS011;17597;52.246;21.054;2022-08-01T02:56:53;4.25;;;3.03;;
30896;SDS011;17597;52.246;21.054;2022-08-01T02:59:21;5.18;;;2.78;;
30896;SDS011;17597;52.246;21.054;2022-08-01T03:01:51;7.18;;;2.60;;
30896;SDS011;17597;52.246;21.054;2022-08-01T03:04:21;11.32;;;3.28;;
30896;SDS011;17597;52.246;21.054;2022-08-01T03:06:48;6.30;;;2.90;;
30896;SDS011;17597;52.246;21.054;2022-08-01T03:09:15;10.35;;;4.68;;
30896;SDS011;17597;52.246;21.054;2022-08-01T03:11:42;8.50;;;2.92;;
30896;SDS011;17597;52.246;21.054;2022-08-01T03:14:09;6.22;;;3.35;;
30896;SDS011;17597;52.246;21.054;2022-08-01T03:16:37;8.85;;;2.75;;
30896;SDS011;17597;52.246;21.054;2022-08-01T03:19:04;6.53;;;3.00;;
30896;SDS011;17597;52.246;21.054;2022-08-01T03:21:33;6.78;;;2.92;;
30896;SDS011;17597;52.246;21.054;2022-08-01T03:24:00;8.02;;;2.88;;
30896;SDS011;17597;52.246;21.054;2022-08-01T03:26:27;9.25;;;3.20;;
30896;SDS011;17597;52.246;21.054;2022-08-01T03:28:56;6.18;;;3.30;;
30896;SDS011;17597;52.246;21.054;2022-08-01T03:31:25;5.60;;;2.70;;
30896;SDS011;17597;52.246;21.054;2022-08-01T03:33:51;5.43;;;3.05;;
30896;SDS011;17597;52.246;21.054;2022-08-01T03:36:17;7.70;;;3.38;;
30896;SDS011;17597;52.246;21.054;2022-08-01T03:38:54;5.57;;;3.22;;
30896;SDS011;17597;52.246;21.054;2022-08-01T03:41:22;6.15;;;3.15;;
30896;SDS011;17597;52.246;21.054;2022-08-01T03:43:56;8.50;;;3.30;;
30896;SDS011;17597;52.246;21.054;2022-08-01T03:46:28;6.47;;;3.78;;
30896;SDS011;17597;52.246;21.054;2022-08-01T03:48:58;8.02;;;3.42;;
30896;SDS011;17597;52.246;21.054;2022-08-01T03:51:28;8.50;;;3.25;;
30896;SDS011;17597;52.246;21.054;2022-08-01T03:53:56;10.43;;;3.47;;
30896;SDS011;17597;52.246;21.054;2022-08-01T03:56:26;8.45;;;4.03;;
30896;SDS011;17597;52.246;21.054;2022-08-01T03:58:58;6.50;;;3.55;;
30896;SDS011;17597;52.246;21.054;2022-08-01T04:01:25;7.28;;;3.47;;
30896;SDS011;17597;52.246;21.054;2022-08-01T04:03:53;9.93;;;3.67;;
30896;SDS011;17597;52.246;21.054;2022-08-01T04:06:19;9.25;;;3.47;;
30896;SDS011;17597;52.246;21.054;2022-08-01T04:08:45;27.75;;;4.43;;
30896;SDS011;17597;52.246;21.054;2022-08-01T04:13:46;7.55;;;4.05;;
30896;SDS011;17597;52.246;21.054;2022-08-01T04:16:12;8.35;;;3.90;;
30896;SDS011;17597;52.246;21.054;2022-08-01T04:18:40;7.45;;;4.18;;
30896;SDS011;17597;52.246;21.054;2022-08-01T04:21:05;10.15;;;3.78;;
30896;SDS011;17597;52.246;21.054;2022-08-01T04:23:31;6.60;;;4.20;;
30896;SDS011;17597;52.246;21.054;2022-08-01T04:26:00;7.85;;;4.20;;
30896;SDS011;17597;52.246;21.054;2022-08-01T04:28:30;6.00;;;3.70;;
30896;SDS011;17597;52.246;21.054;2022-08-01T04:31:00;9.02;;;4.38;;
30896;SDS011;17597;52.246;21.054;2022-08-01T04:33:26;9.30;;;4.10;;
30896;SDS011;17597;52.246;21.054;2022-08-01T04:35:54;11.32;;;4.22;;
30896;SDS011;17597;52.246;21.054;2022-08-01T04:38:24;7.75;;;4.32;;
30896;SDS011;17597;52.246;21.054;2022-08-01T04:40:52;10.75;;;3.90;;
30896;SDS011;17597;52.246;21.054;2022-08-01T04:43:19;9.77;;;4.40;;
30896;SDS011;17597;52.246;21.054;2022-08-01T04:45:45;9.57;;;5.03;;
30896;SDS011;17597;52.246;21.054;2022-08-01T04:48:12;9.65;;;4.40;;
30896;SDS011;17597;52.246;21.054;2022-08-01T04:50:40;7.40;;;4.70;;
30896;SDS011;17597;52.246;21.054;2022-08-01T04:53:11;9.98;;;3.83;;
30896;SDS011;17597;52.246;21.054;2022-08-01T04:55:43;9.02;;;3.72;;
30896;SDS011;17597;52.246;21.054;2022-08-01T04:58:12;10.45;;;4.40;;
30896;SDS011;17597;52.246;21.054;2022-08-01T05:00:38;10.75;;;4.47;;
30896;SDS011;17597;52.246;21.054;2022-08-01T05:03:03;7.57;;;4.10;;
30896;SDS011;17597;52.246;21.054;2022-08-01T05:05:29;9.38;;;4.22;;
30896;SDS011;17597;52.246;21.054;2022-08-01T05:07:55;10.63;;;4.32;;
30896;SDS011;17597;52.246;21.054;2022-08-01T05:10:21;10.13;;;4.70;;
30896;SDS011;17597;52.246;21.054;2022-08-01T05:12:46;11.98;;;5.43;;
30896;SDS011;17597;52.246;21.054;2022-08-01T05:15:11;13.07;;;4.90;;
30896;SDS011;17597;52.246;21.054;2022-08-01T05:17:37;11.23;;;4.70;;
30896;SDS011;17597;52.246;21.054;2022-08-01T05:20:02;10.90;;;4.75;;
30896;SDS011;17597;52.246;21.054;2022-08-01T05:22:28;13.63;;;5.25;;
30896;SDS011;17597;52.246;21.054;2022-08-01T05:24:53;17.67;;;5.50;;
30896;SDS011;17597;52.246;21.054;2022-08-01T05:27:18;11.57;;;5.13;;
30896;SDS011;17597;52.246;21.054;2022-08-01T05:29:44;14.95;;;6.80;;
30896;SDS011;17597;52.246;21.054;2022-08-01T05:32:09;14.95;;;6.53;;
30896;SDS011;17597;52.246;21.054;2022-08-01T05:34:35;13.05;;;5.57;;
30896;SDS011;17597;52.246;21.054;2022-08-01T05:37:00;11.98;;;5.28;;
30896;SDS011;17597;52.246;21.054;2022-08-01T05:39:26;11.90;;;5.07;;
30896;SDS011;17597;52.246;21.054;2022-08-01T05:41:51;10.52;;;4.75;;
30896;SDS011;17597;52.246;21.054;2022-08-01T05:44:17;11.23;;;4.53;;
30896;SDS011;17597;52.246;21.054;2022-08-01T05:46:42;9.60;;;4.93;;
30896;SDS011;17597;52.246;21.054;2022-08-01T05:49:08;11.98;;;5.57;;
30896;SDS011;17597;52.246;21.054;2022-08-01T05:51:33;11.15;;;5.20;;
30896;SDS011;17597;52.246;21.054;2022-08-01T05:53:59;11.18;;;4.50;;
30896;SDS011;17597;52.246;21.054;2022-08-01T05:56:25;15.38;;;5.20;;
30896;SDS011;17597;52.246;21.054;2022-08-01T05:58:50;14.15;;;4.72;;
30896;SDS011;17597;52.246;21.054;2022-08-01T06:01:17;16.60;;;5.97;;
30896;SDS011;17597;52.246;21.054;2022-08-01T06:03:43;13.40;;;4.68;;
30896;SDS011;17597;52.246;21.054;2022-08-01T06:06:09;15.55;;;5.93;;
30896;SDS011;17597;52.246;21.054;2022-08-01T06:08:34;15.23;;;5.75;;
30896;SDS011;17597;52.246;21.054;2022-08-01T06:11:00;11.65;;;5.45;;
30896;SDS011;17597;52.246;21.054;2022-08-01T06:13:26;16.30;;;5.97;;
30896;SDS011;17597;52.246;21.054;2022-08-01T06:15:51;15.05;;;5.90;;
30896;SDS011;17597;52.246;21.054;2022-08-01T06:18:17;13.48;;;4.93;;
30896;SDS011;17597;52.246;21.054;2022-08-01T06:20:43;14.85;;;5.75;;
30896;SDS011;17597;52.246;21.054;2022-08-01T06:23:08;13.13;;;4.80;;
30896;SDS011;17597;52.246;21.054;2022-08-01T06:25:34;14.43;;;4.90;;
30896;SDS011;17597;52.246;21.054;2022-08-01T06:28:01;13.15;;;5.68;;
30896;SDS011;17597;52.246;21.054;2022-08-01T06:30:26;15.30;;;5.15;;
30896;SDS011;17597;52.246;21.054;2022-08-01T06:32:52;11.38;;;4.88;;
30896;SDS011;17597;52.246;21.054;2022-08-01T06:35:18;14.93;;;4.60;;
30896;SDS011;17597;52.246;21.054;2022-08-01T06:37:43;16.90;;;6.35;;
30896;SDS011;17597;52.246;21.054;2022-08-01T06:40:12;16.30;;;5.93;;
30896;SDS011;17597;52.246;21.054;2022-08-01T06:42:38;14.98;;;5.90;;
30896;SDS011;17597;52.246;21.054;2022-08-01T06:45:04;17.08;;;5.65;;
30896;SDS011;17597;52.246;21.054;2022-08-01T06:47:31;20.27;;;6.18;;
30896;SDS011;17597;52.246;21.054;2022-08-01T06:49:56;18.52;;;5.88;;
30896;SDS011;17597;52.246;21.054;2022-08-01T06:52:22;17.58;;;6.28;;
30896;SDS011;17597;52.246;21.054;2022-08-01T06:54:47;18.13;;;6.22;;
30896;SDS011;17597;52.246;21.054;2022-08-01T06:57:13;17.52;;;5.75;;
30896;SDS011;17597;52.246;21.054;2022-08-01T06:59:38;19.88;;;5.28;;
30896;SDS011;17597;52.246;21.054;2022-08-01T07:02:03;11.70;;;4.90;;
30896;SDS011;17597;52.246;21.054;2022-08-01T07:04:29;15.88;;;5.05;;
30896;SDS011;17597;52.246;21.054;2022-08-01T07:06:54;11.20;;;4.28;;
30896;SDS011;17597;52.246;21.054;2022-08-01T07:09:24;11.55;;;4.10;;
30896;SDS011;17597;52.246;21.054;2022-08-01T07:11:50;8.98;;;3.75;;
30896;SDS011;17597;52.246;21.054;2022-08-01T07:14:18;8.85;;;3.20;;
30896;SDS011;17597;52.246;21.054;2022-08-01T07:16:44;9.10;;;3.95;;
30896;SDS011;17597;52.246;21.054;2022-08-01T07:19:10;6.38;;;2.95;;
30896;SDS011;17597;52.246;21.054;2022-08-01T07:21:35;6.57;;;2.60;;
30896;SDS011;17597;52.246;21.054;2022-08-01T07:24:01;13.45;;;2.53;;
30896;SDS011;17597;52.246;21.054;2022-08-01T07:26:27;7.45;;;2.28;;
30896;SDS011;17597;52.246;21.054;2022-08-01T07:28:52;5.85;;;2.58;;
30896;SDS011;17597;52.246;21.054;2022-08-01T07:31:18;8.07;;;2.70;;
30896;SDS011;17597;52.246;21.054;2022-08-01T07:33:44;10.38;;;3.13;;
30896;SDS011;17597;52.246;21.054;2022-08-01T07:36:09;7.93;;;2.97;;
30896;SDS011;17597;52.246;21.054;2022-08-01T07:38:34;9.00;;;2.90;;
30896;SDS011;17597;52.246;21.054;2022-08-01T07:41:00;7.72;;;2.45;;
30896;SDS011;17597;52.246;21.054;2022-08-01T07:43:25;7.85;;;2.38;;
30896;SDS011;17597;52.246;21.054;2022-08-01T07:45:50;4.93;;;2.30;;
30896;SDS011;17597;52.246;21.054;2022-08-01T07:48:16;9.80;;;2.65;;
30896;SDS011;17597;52.246;21.054;2022-08-01T07:50:41;6.72;;;2.40;;
30896;SDS011;17597;52.246;21.054;2022-08-01T07:53:06;11.77;;;3.67;;
30896;SDS011;17597;52.246;21.054;2022-08-01T07:55:32;6.87;;;2.33;;
30896;SDS011;17597;52.246;21.054;2022-08-01T07:57:57;6.03;;;2.38;;
30896;SDS011;17597;52.246;21.054;2022-08-01T08:00:22;9.00;;;2.50;;
30896;SDS011;17597;52.246;21.054;2022-08-01T08:02:48;4.85;;;2.22;;
30896;SDS011;17597;52.246;21.054;2022-08-01T08:05:13;3.97;;;1.57;;
30896;SDS011;17597;52.246;21.054;2022-08-01T08:07:39;4.53;;;1.77;;
30896;SDS011;17597;52.246;21.054;2022-08-01T08:10:04;4.70;;;2.10;;
30896;SDS011;17597;52.246;21.054;2022-08-01T08:12:30;7.72;;;2.28;;
30896;SDS011;17597;52.246;21.054;2022-08-01T08:14:56;6.35;;;2.47;;
30896;SDS011;17597;52.246;21.054;2022-08-01T08:17:24;4.57;;;1.83;;
30896;SDS011;17597;52.246;21.054;2022-08-01T08:19:50;7.78;;;2.60;;
30896;SDS011;17597;52.246;21.054;2022-08-01T08:22:16;3.65;;;1.33;;
30896;SDS011;17597;52.246;21.054;2022-08-01T08:24:41;4.03;;;1.40;;
30896;SDS011;17597;52.246;21.054;2022-08-01T08:27:07;2.30;;;1.33;;
30896;SDS011;17597;52.246;21.054;2022-08-01T08:29:32;3.00;;;1.30;;
30896;SDS011;17597;52.246;21.054;2022-08-01T08:31:58;3.25;;;1.60;;
30896;SDS011;17597;52.246;21.054;2022-08-01T08:34:25;5.43;;;2.33;;
30896;SDS011;17597;52.246;21.054;2022-08-01T08:36:52;3.85;;;1.80;;
30896;SDS011;17597;52.246;21.054;2022-08-01T08:39:19;2.97;;;1.30;;
30896;SDS011;17597;52.246;21.054;2022-08-01T08:41:45;4.22;;;1.48;;
30896;SDS011;17597;52.246;21.054;2022-08-01T08:44:11;3.95;;;1.20;;
30896;SDS011;17597;52.246;21.054;2022-08-01T08:46:40;3.60;;;1.48;;
30896;SDS011;17597;52.246;21.054;2022-08-01T08:49:08;5.00;;;1.40;;
30896;SDS011;17597;52.246;21.054;2022-08-01T08:51:35;5.20;;;1.98;;
30896;SDS011;17597;52.246;21.054;2022-08-01T08:54:05;4.63;;;2.00;;
30896;SDS011;17597;52.246;21.054;2022-08-01T08:56:31;5.10;;;1.70;;
30896;SDS011;17597;52.246;21.054;2022-08-01T08:58:59;4.95;;;1.63;;
30896;SDS011;17597;52.246;21.054;2022-08-01T09:01:25;4.82;;;1.35;;
30896;SDS011;17597;52.246;21.054;2022-08-01T09:03:51;5.53;;;1.35;;
30896;SDS011;17597;52.246;21.054;2022-08-01T09:06:17;3.28;;;1.45;;
30896;SDS011;17597;52.246;21.054;2022-08-01T09:08:43;4.43;;;1.20;;
30896;SDS011;17597;52.246;21.054;2022-08-01T09:11:08;3.13;;;1.48;;
30896;SDS011;17597;52.246;21.054;2022-08-01T09:13:34;2.88;;;1.20;;
30896;SDS011;17597;52.246;21.054;2022-08-01T09:15:59;4.35;;;1.20;;
30896;SDS011;17597;52.246;21.054;2022-08-01T09:18:38;2.90;;;1.10;;
30896;SDS011;17597;52.246;21.054;2022-08-01T09:23:50;4.63;;;1.60;;
30896;SDS011;17597;52.246;21.054;2022-08-01T09:26:21;5.65;;;1.45;;
30896;SDS011;17597;52.246;21.054;2022-08-01T09:28:54;5.60;;;1.73;;
30896;SDS011;17597;52.246;21.054;2022-08-01T09:31:20;3.13;;;1.30;;
30896;SDS011;17597;52.246;21.054;2022-08-01T09:36:15;4.63;;;1.42;;
30896;SDS011;17597;52.246;21.054;2022-08-01T09:38:41;4.55;;;1.48;;
30896;SDS011;17597;52.246;21.054;2022-08-01T09:41:07;4.70;;;1.58;;
30896;SDS011;17597;52.246;21.054;2022-08-01T09:43:32;5.38;;;1.85;;
30896;SDS011;17597;52.246;21.054;2022-08-01T09:45:59;4.10;;;1.63;;
30896;SDS011;17597;52.246;21.054;2022-08-01T09:48:26;3.40;;;1.63;;
30896;SDS011;17597;52.246;21.054;2022-08-01T09:50:52;6.70;;;1.17;;
30896;SDS011;17597;52.246;21.054;2022-08-01T09:53:18;4.82;;;1.17;;
30896;SDS011;17597;52.246;21.054;2022-08-01T09:55:44;3.22;;;1.27;;
30896;SDS011;17597;52.246;21.054;2022-08-01T09:58:10;4.00;;;1.20;;
30896;SDS011;17597;52.246;21.054;2022-08-01T10:00:36;2.70;;;1.08;;
30896;SDS011;17597;52.246;21.054;2022-08-01T10:03:20;3.00;;;1.27;;
30896;SDS011;17597;52.246;21.054;2022-08-01T10:05:50;4.07;;;1.33;;
30896;SDS011;17597;52.246;21.054;2022-08-01T10:08:16;3.00;;;1.30;;
30896;SDS011;17597;52.246;21.054;2022-08-01T10:10:43;3.80;;;1.55;;
30896;SDS011;17597;52.246;21.054;2022-08-01T10:13:35;2.92;;;1.50;;
30896;SDS011;17597;52.246;21.054;2022-08-01T10:16:01;3.53;;;1.10;;
30896;SDS011;17597;52.246;21.054;2022-08-01T10:18:28;3.58;;;1.60;;
30896;SDS011;17597;52.246;21.054;2022-08-01T10:20:56;3.50;;;1.50;;
30896;SDS011;17597;52.246;21.054;2022-08-01T10:23:24;3.25;;;1.30;;
30896;SDS011;17597;52.246;21.054;2022-08-01T10:25:53;3.28;;;1.33;;
30896;SDS011;17597;52.246;21.054;2022-08-01T10:28:20;4.68;;;1.88;;
30896;SDS011;17597;52.246;21.054;2022-08-01T10:30:47;4.95;;;1.60;;
30896;SDS011;17597;52.246;21.054;2022-08-01T10:33:13;4.00;;;1.55;;
30896;SDS011;17597;52.246;21.054;2022-08-01T10:35:40;3.42;;;1.33;;
30896;SDS011;17597;52.246;21.054;2022-08-01T10:38:06;3.22;;;1.30;;
30896;SDS011;17597;52.246;21.054;2022-08-01T10:40:32;2.35;;;1.20;;
30896;SDS011;17597;52.246;21.054;2022-08-01T10:42:57;3.13;;;1.67;;
30896;SDS011;17597;52.246;21.054;2022-08-01T10:45:23;3.25;;;1.30;;
30896;SDS011;17597;52.246;21.054;2022-08-01T10:48:00;2.83;;;1.33;;
30896;SDS011;17597;52.246;21.054;2022-08-01T10:50:32;3.50;;;1.35;;
30896;SDS011;17597;52.246;21.054;2022-08-01T10:53:18;4.15;;;1.65;;
30896;SDS011;17597;52.246;21.054;2022-08-01T10:55:49;1.70;;;1.15;;
30896;SDS011;17597;52.246;21.054;2022-08-01T10:58:21;2.97;;;1.40;;
30896;SDS011;17597;52.246;21.054;2022-08-01T11:03:42;3.20;;;1.30;;
30896;SDS011;17597;52.246;21.054;2022-08-01T11:06:18;2.88;;;1.10;;
30896;SDS011;17597;52.246;21.054;2022-08-01T11:08:52;2.97;;;1.33;;
30896;SDS011;17597;52.246;21.054;2022-08-01T11:11:20;6.80;;;1.95;;
30896;SDS011;17597;52.246;21.054;2022-08-01T11:14:07;4.50;;;1.90;;
30896;SDS011;17597;52.246;21.054;2022-08-01T11:16:35;10.48;;;2.13;;
30896;SDS011;17597;52.246;21.054;2022-08-01T11:19:02;3.28;;;1.55;;
30896;SDS011;17597;52.246;21.054;2022-08-01T11:24:41;4.35;;;1.25;;
30896;SDS011;17597;52.246;21.054;2022-08-01T11:27:26;5.30;;;1.23;;
30896;SDS011;17597;52.246;21.054;2022-08-01T11:32:54;2.75;;;1.20;;
30896;SDS011;17597;52.246;21.054;2022-08-01T11:35:22;4.30;;;1.45;;
30896;SDS011;17597;52.246;21.054;2022-08-01T11:37:49;2.97;;;1.30;;
30896;SDS011;17597;52.246;21.054;2022-08-01T11:40:20;4.53;;;1.60;;
30896;SDS011;17597;52.246;21.054;2022-08-01T11:42:49;7.38;;;2.05;;
30896;SDS011;17597;52.246;21.054;2022-08-01T11:45:51;8.23;;;2.28;;
30896;SDS011;17597;52.246;21.054;2022-08-01T11:48:21;7.00;;;1.75;;
30896;SDS011;17597;52.246;21.054;2022-08-01T11:50:49;4.45;;;1.30;;
30896;SDS011;17597;52.246;21.054;2022-08-01T11:53:16;6.00;;;1.40;;
30896;SDS011;17597;52.246;21.054;2022-08-01T11:55:48;4.28;;;1.63;;
30896;SDS011;17597;52.246;21.054;2022-08-01T11:58:19;5.45;;;1.52;;
30896;SDS011;17597;52.246;21.054;2022-08-01T12:00:52;6.53;;;1.77;;
30896;SDS011;17597;52.246;21.054;2022-08-01T12:03:23;4.72;;;1.50;;
30896;SDS011;17597;52.246;21.054;2022-08-01T12:05:52;5.10;;;1.70;;
30896;SDS011;17597;52.246;21.054;2022-08-01T12:08:24;4.65;;;1.40;;
30896;SDS011;17597;52.246;21.054;2022-08-01T12:10:51;5.30;;;1.67;;
30896;SDS011;17597;52.246;21.054;2022-08-01T12:13:16;6.50;;;1.98;;
30896;SDS011;17597;52.246;21.054;2022-08-01T12:15:43;5.57;;;1.40;;
30896;SDS011;17597;52.246;21.054;2022-08-01T12:18:10;3.75;;;1.58;;
30896;SDS011;17597;52.246;21.054;2022-08-01T12:20:39;5.35;;;1.75;;
30896;SDS011;17597;52.246;21.054;2022-08-01T12:23:12;3.28;;;1.50;;
30896;SDS011;17597;52.246;21.054;2022-08-01T12:25:39;5.38;;;1.45;;
30896;SDS011;17597;52.246;21.054;2022-08-01T12:28:06;4.38;;;1.45;;
30896;SDS011;17597;52.246;21.054;2022-08-01T12:30:33;5.15;;;1.42;;
30896;SDS011;17597;52.246;21.054;2022-08-01T12:33:00;4.90;;;1.20;;
30896;SDS011;17597;52.246;21.054;2022-08-01T12:35:28;6.65;;;1.33;;
30896;SDS011;17597;52.246;21.054;2022-08-01T12:40:24;6.50;;;1.60;;
30896;SDS011;17597;52.246;21.054;2022-08-01T12:42:55;4.47;;;1.83;;
30896;SDS011;17597;52.246;21.054;2022-08-01T12:45:39;3.08;;;1.35;;
30896;SDS011;17597;52.246;21.054;2022-08-01T12:48:13;4.70;;;1.52;;
30896;SDS011;17597;52.246;21.054;2022-08-01T12:50:49;8.13;;;1.60;;
30896;SDS011;17597;52.246;21.054;2022-08-01T12:53:17;3.78;;;1.67;;
30896;SDS011;17597;52.246;21.054;2022-08-01T12:55:47;3.72;;;1.60;;
30896;SDS011;17597;52.246;21.054;2022-08-01T12:58:13;4.97;;;1.48;;
30896;SDS011;17597;52.246;21.054;2022-08-01T13:00:40;3.80;;;1.60;;
30896;SDS011;17597;52.246;21.054;2022-08-01T13:03:13;3.42;;;1.25;;
30896;SDS011;17597;52.246;21.054;2022-08-01T13:05:41;5.15;;;1.50;;
30896;SDS011;17597;52.246;21.054;2022-08-01T13:08:10;4.47;;;1.63;;
30896;SDS011;17597;52.246;21.054;2022-08-01T13:10:40;3.13;;;1.70;;
30896;SDS011;17597;52.246;21.054;2022-08-01T13:13:06;6.70;;;1.60;;
30896;SDS011;17597;52.246;21.054;2022-08-01T13:15:32;7.15;;;1.50;;
30896;SDS011;17597;52.246;21.054;2022-08-01T13:21:06;5.85;;;1.60;;
30896;SDS011;17597;52.246;21.054;2022-08-01T13:23:40;5.20;;;1.42;;
30896;SDS011;17597;52.246;21.054;2022-08-01T13:26:07;3.55;;;1.67;;
30896;SDS011;17597;52.246;21.054;2022-08-01T13:28:33;4.82;;;1.70;;
30896;SDS011;17597;52.246;21.054;2022-08-01T13:31:06;3.95;;;1.50;;
30896;SDS011;17597;52.246;21.054;2022-08-01T13:33:42;5.63;;;1.65;;
30896;SDS011;17597;52.246;21.054;2022-08-01T13:36:10;3.25;;;1.48;;
30896;SDS011;17597;52.246;21.054;2022-08-01T13:38:36;4.70;;;1.65;;
30896;SDS011;17597;52.246;21.054;2022-08-01T13:41:28;4.28;;;1.55;;
30896;SDS011;17597;52.246;21.054;2022-08-01T13:43:53;3.10;;;1.92;;
30896;SDS011;17597;52.246;21.054;2022-08-01T13:46:19;4.68;;;2.00;;
30896;SDS011;17597;52.246;21.054;2022-08-01T13:48:45;3.75;;;2.22;;
30896;SDS011;17597;52.246;21.054;2022-08-01T13:51:11;3.63;;;1.92;;
30896;SDS011;17597;52.246;21.054;2022-08-01T13:53:36;2.38;;;2.00;;
30896;SDS011;17597;52.246;21.054;2022-08-01T13:56:02;5.88;;;1.92;;
30896;SDS011;17597;52.246;21.054;2022-08-01T13:58:27;3.00;;;1.88;;
30896;SDS011;17597;52.246;21.054;2022-08-01T14:00:53;4.93;;;2.20;;
30896;SDS011;17597;52.246;21.054;2022-08-01T14:03:20;3.95;;;2.03;;
30896;SDS011;17597;52.246;21.054;2022-08-01T14:05:46;3.35;;;2.20;;
30896;SDS011;17597;52.246;21.054;2022-08-01T14:08:12;4.07;;;2.33;;
30896;SDS011;17597;52.246;21.054;2022-08-01T14:10:37;3.75;;;2.38;;
30896;SDS011;17597;52.246;21.054;2022-08-01T14:13:03;6.18;;;2.47;;
30896;SDS011;17597;52.246;21.054;2022-08-01T14:15:28;2.63;;;2.30;;
30896;SDS011;17597;52.246;21.054;2022-08-01T14:17:55;5.07;;;2.17;;
30896;SDS011;17597;52.246;21.054;2022-08-01T14:20:20;4.85;;;2.40;;
30896;SDS011;17597;52.246;21.054;2022-08-01T14:22:46;4.80;;;2.28;;
30896;SDS011;17597;52.246;21.054;2022-08-01T14:25:13;3.15;;;2.33;;
30896;SDS011;17597;52.246;21.054;2022-08-01T14:27:38;3.90;;;2.60;;
30896;SDS011;17597;52.246;21.054;2022-08-01T14:30:06;3.97;;;2.58;;
30896;SDS011;17597;52.246;21.054;2022-08-01T14:32:36;5.97;;;2.92;;
30896;SDS011;17597;52.246;21.054;2022-08-01T14:35:01;7.88;;;3.00;;
30896;SDS011;17597;52.246;21.054;2022-08-01T14:37:28;6.97;;;5.15;;
30896;SDS011;17597;52.246;21.054;2022-08-01T14:39:54;6.97;;;4.07;;
30896;SDS011;17597;52.246;21.054;2022-08-01T14:42:22;5.38;;;2.95;;
30896;SDS011;17597;52.246;21.054;2022-08-01T14:44:48;4.72;;;2.40;;
30896;SDS011;17597;52.246;21.054;2022-08-01T14:47:13;6.05;;;2.53;;
30896;SDS011;17597;52.246;21.054;2022-08-01T14:49:38;7.43;;;2.87;;
30896;SDS011;17597;52.246;21.054;2022-08-01T14:52:04;5.63;;;2.75;;
30896;SDS011;17597;52.246;21.054;2022-08-01T14:54:29;5.43;;;2.58;;
30896;SDS011;17597;52.246;21.054;2022-08-01T14:56:55;6.67;;;3.10;;
30896;SDS011;17597;52.246;21.054;2022-08-01T14:59:20;6.22;;;2.80;;
30896;SDS011;17597;52.246;21.054;2022-08-01T15:01:46;11.23;;;3.40;;
30896;SDS011;17597;52.246;21.054;2022-08-01T15:04:11;3.20;;;2.08;;
30896;SDS011;17597;52.246;21.054;2022-08-01T15:06:37;10.60;;;2.50;;
30896;SDS011;17597;52.246;21.054;2022-08-01T15:09:03;7.78;;;2.40;;
30896;SDS011;17597;52.246;21.054;2022-08-01T15:11:28;5.82;;;2.50;;